Time;durP1;ratioP1;P1;durP2;ratioP2;P2;SDS_P1;SDS_P2;PMS_P1;PMS_P2;Temp;Humidity;BMP_temperature;BMP_pressure;BME280_temperature;BME280_humidity;BME280_pressure;Samples;Min_cycle;Max_cycle;Signal;HPM_P1;HPM_P2
2022/03/28 00:00:14;;;;;;;23.25;14.32;;;6.50;99.90;;;;;;5083934;28;20832;-71
2022/03/28 00:02:44;;;;;;;21.50;13.55;;;6.50;99.90;;;;;;5085037;28;20288;-71
2022/03/28 00:05:14;;;;;;;25.33;14.00;;;6.60;99.90;;;;;;5086783;28;20204;-70
2022/03/28 00:07:42;;;;;;;25.83;15.88;;;6.60;99.90;;;;;;5082497;28;20746;-70
2022/03/28 00:10:10;;;;;;;24.85;13.63;;;6.60;99.90;;;;;;5078591;28;20484;-71
2022/03/28 00:12:39;;;;;;;23.45;15.23;;;6.60;99.90;;;;;;5078301;28;20204;-69
2022/03/28 00:15:09;;;;;;;23.02;14.45;;;6.70;99.90;;;;;;5077500;28;20422;-69
2022/03/28 00:17:38;;;;;;;30.58;16.35;;;6.70;99.90;;;;;;5077549;28;20284;-70
2022/03/28 00:20:09;;;;;;;22.73;13.40;;;6.70;99.90;;;;;;5077426;28;20737;-69
2022/03/28 00:22:39;;;;;;;24.85;13.82;;;6.70;99.90;;;;;;5077711;28;20197;-70
2022/03/28 00:25:08;;;;;;;21.55;13.73;;;6.60;99.90;;;;;;5077453;28;20258;-70
2022/03/28 00:27:36;;;;;;;20.10;12.82;;;6.60;99.90;;;;;;5078734;28;20235;-68
2022/03/28 00:30:06;;;;;;;21.55;11.82;;;6.60;99.90;;;;;;5077965;28;20227;-70
2022/03/28 00:32:33;;;;;;;24.35;14.25;;;6.70;99.90;;;;;;5078496;28;20203;-70
2022/03/28 00:35:02;;;;;;;25.10;15.27;;;6.70;99.90;;;;;;5078050;28;20490;-70
2022/03/28 00:37:29;;;;;;;22.23;12.98;;;6.70;99.90;;;;;;5078012;28;20211;-70
2022/03/28 00:39:59;;;;;;;24.52;15.52;;;6.70;99.90;;;;;;5078532;28;20409;-69
2022/03/28 00:42:27;;;;;;;28.55;16.83;;;6.60;99.90;;;;;;5078950;28;20205;-70
2022/03/28 00:44:55;;;;;;;22.45;13.90;;;6.70;99.90;;;;;;5078111;28;20200;-70
2022/03/28 00:47:22;;;;;;;27.33;15.68;;;6.60;99.90;;;;;;5078080;28;20211;-70
2022/03/28 00:49:51;;;;;;;28.67;15.30;;;6.70;99.90;;;;;;5077510;28;20213;-70
2022/03/28 00:52:19;;;;;;;25.25;15.90;;;6.70;99.90;;;;;;5077600;28;20210;-70
2022/03/28 00:54:47;;;;;;;21.95;13.40;;;6.70;99.90;;;;;;5077838;28;20204;-69
2022/03/28 00:57:17;;;;;;;22.17;13.00;;;6.70;99.90;;;;;;5081252;28;20212;-70
2022/03/28 00:59:45;;;;;;;25.40;13.95;;;6.80;99.90;;;;;;5080807;28;20228;-70
2022/03/28 01:02:13;;;;;;;20.52;12.13;;;6.70;99.90;;;;;;5081614;28;20586;-70
2022/03/28 01:04:41;;;;;;;19.15;12.65;;;6.70;99.90;;;;;;5082094;28;20683;-69
2022/03/28 01:07:10;;;;;;;30.88;17.90;;;6.70;99.90;;;;;;5081456;28;20497;-68
2022/03/28 01:09:38;;;;;;;30.08;15.30;;;6.70;99.90;;;;;;5083558;28;20268;-69
2022/03/28 01:12:07;;;;;;;30.05;14.60;;;6.70;99.90;;;;;;5082786;28;20626;-68
2022/03/28 01:14:37;;;;;;;25.60;14.57;;;6.70;99.90;;;;;;5080799;28;20204;-69
2022/03/28 01:19:53;;;;;;;25.38;14.65;;;6.80;99.90;;;;;;5081269;28;20236;-69
2022/03/28 01:22:22;;;;;;;24.08;12.95;;;6.70;99.90;;;;;;5080362;28;20559;-72
2022/03/28 01:24:50;;;;;;;24.50;14.27;;;6.70;99.90;;;;;;5080808;28;20204;-69
2022/03/28 01:27:20;;;;;;;22.10;14.75;;;6.70;99.90;;;;;;5080263;28;20652;-69
2022/03/28 01:29:48;;;;;;;22.55;13.43;;;6.70;99.90;;;;;;5079923;28;20235;-72
2022/03/28 01:32:16;;;;;;;21.70;12.60;;;6.70;99.90;;;;;;5080399;28;20284;-71
2022/03/28 01:34:44;;;;;;;21.33;12.75;;;6.70;99.90;;;;;;5079306;28;20279;-71
2022/03/28 01:37:12;;;;;;;25.45;14.10;;;6.70;99.90;;;;;;5079701;28;20307;-71
2022/03/28 01:39:41;;;;;;;24.38;13.48;;;6.70;99.90;;;;;;5079703;28;20290;-71
2022/03/28 01:42:09;;;;;;;19.23;13.02;;;6.60;99.90;;;;;;5079681;28;20279;-71
2022/03/28 01:44:37;;;;;;;27.88;15.10;;;6.70;99.90;;;;;;5079684;28;20200;-71
2022/03/28 01:47:05;;;;;;;26.23;16.17;;;6.60;99.90;;;;;;5079697;28;20574;-71
2022/03/28 01:49:33;;;;;;;27.63;14.90;;;6.60;99.90;;;;;;5079704;28;20207;-71
2022/03/28 01:52:01;;;;;;;29.30;16.80;;;6.70;99.90;;;;;;5079521;28;20200;-70
2022/03/28 01:54:29;;;;;;;31.85;15.80;;;6.60;99.90;;;;;;5079140;28;20601;-70
2022/03/28 01:56:58;;;;;;;34.63;18.48;;;6.60;99.90;;;;;;5079517;28;20200;-70
2022/03/28 01:59:26;;;;;;;36.72;19.10;;;6.60;99.90;;;;;;5079167;28;20227;-70
2022/03/28 02:01:54;;;;;;;32.63;17.90;;;6.70;99.90;;;;;;5079358;28;20288;-70
2022/03/28 02:04:22;;;;;;;33.63;18.25;;;6.70;99.90;;;;;;5079869;28;20383;-70
2022/03/28 02:06:50;;;;;;;28.58;17.42;;;6.70;99.90;;;;;;5096138;28;20205;-69
2022/03/28 02:09:17;;;;;;;31.83;18.90;;;6.80;99.90;;;;;;5087155;28;20371;-69
2022/03/28 02:11:45;;;;;;;35.67;20.60;;;6.80;99.90;;;;;;5078870;28;20307;-70
2022/03/28 02:14:15;;;;;;;31.92;20.00;;;6.80;99.90;;;;;;5079185;28;20204;-70
2022/03/28 02:16:45;;;;;;;31.20;20.13;;;6.80;99.90;;;;;;5078875;28;20265;-69
2022/03/28 02:19:13;;;;;;;31.40;19.95;;;6.70;99.90;;;;;;5078417;28;20463;-70
2022/03/28 02:21:41;;;;;;;28.50;17.20;;;6.80;99.90;;;;;;5078863;28;20232;-69
2022/03/28 02:24:09;;;;;;;27.48;18.90;;;6.80;99.90;;;;;;5079161;28;20200;-69
2022/03/28 02:26:36;;;;;;;27.40;17.80;;;6.80;99.90;;;;;;5079064;28;20211;-69
2022/03/28 02:29:05;;;;;;;26.88;16.50;;;6.70;99.90;;;;;;5078671;28;20282;-70
2022/03/28 02:31:34;;;;;;;24.30;16.60;;;6.70;99.90;;;;;;5078883;28;20224;-69
2022/03/28 02:34:02;;;;;;;30.52;17.45;;;6.60;99.90;;;;;;5078740;28;20204;-69
2022/03/28 02:36:30;;;;;;;26.58;17.27;;;6.50;99.90;;;;;;5078744;28;20200;-72
2022/03/28 02:38:58;;;;;;;24.63;15.70;;;6.50;99.90;;;;;;5078727;28;20740;-69
2022/03/28 02:41:26;;;;;;;29.65;17.98;;;6.40;99.90;;;;;;5078823;28;20224;-69
2022/03/28 02:43:54;;;;;;;24.35;15.75;;;6.40;99.90;;;;;;5078406;28;20584;-70
2022/03/28 02:46:22;;;;;;;29.27;19.02;;;6.40;99.90;;;;;;5078719;28;20698;-69
2022/03/28 02:48:52;;;;;;;30.38;18.50;;;6.50;99.90;;;;;;5078676;28;20214;-69
2022/03/28 02:51:19;;;;;;;31.60;18.95;;;6.50;99.90;;;;;;5078673;28;20478;-69
2022/03/28 02:53:47;;;;;;;34.78;19.90;;;6.50;99.90;;;;;;5078279;28;20219;-68
2022/03/28 02:56:15;;;;;;;33.75;19.45;;;6.50;99.90;;;;;;5078672;28;20204;-68
2022/03/28 02:58:43;;;;;;;32.33;19.90;;;6.50;99.90;;;;;;5078178;28;20201;-69
2022/03/28 03:01:11;;;;;;;30.70;17.25;;;6.50;99.90;;;;;;5078324;28;20226;-69
2022/03/28 03:03:39;;;;;;;17.85;10.88;;;6.50;99.90;;;;;;5078653;28;20200;-69
2022/03/28 03:06:08;;;;;;;9.45;7.40;;;6.60;99.90;;;;;;5079434;28;20861;-69
2022/03/28 03:08:36;;;;;;;12.77;8.00;;;6.70;99.90;;;;;;5078366;28;20860;-68
2022/03/28 03:11:04;;;;;;;11.05;6.90;;;6.60;99.90;;;;;;5078806;28;20232;-70
2022/03/28 03:13:32;;;;;;;12.00;7.65;;;6.50;99.90;;;;;;5079437;28;20200;-70
2022/03/28 03:16:00;;;;;;;10.77;6.93;;;6.50;99.90;;;;;;5079472;28;20204;-69
2022/03/28 03:18:29;;;;;;;10.10;7.07;;;6.50;99.90;;;;;;5078771;28;20210;-69
2022/03/28 03:20:58;;;;;;;15.20;8.13;;;6.40;99.90;;;;;;5079716;28;20305;-69
2022/03/28 03:23:28;;;;;;;13.70;7.63;;;6.30;99.90;;;;;;5078301;28;20200;-69
2022/03/28 03:25:56;;;;;;;14.10;8.43;;;6.20;99.90;;;;;;5079095;28;20200;-69
2022/03/28 03:28:25;;;;;;;12.25;7.03;;;6.20;99.90;;;;;;5078499;28;20296;-69
2022/03/28 03:30:53;;;;;;;10.50;6.38;;;6.10;99.90;;;;;;5078632;28;20232;-69
2022/03/28 03:33:21;;;;;;;7.50;5.60;;;6.20;99.90;;;;;;5078439;28;20360;-68
2022/03/28 03:35:49;;;;;;;8.18;5.43;;;6.10;99.90;;;;;;5078678;28;20200;-68
2022/03/28 03:38:17;;;;;;;7.20;4.75;;;6.00;99.90;;;;;;5078494;28;20303;-68
2022/03/28 03:40:46;;;;;;;6.18;5.45;;;5.90;99.90;;;;;;5078411;28;20716;-68
2022/03/28 03:43:14;;;;;;;6.80;5.25;;;6.00;99.90;;;;;;5078606;28;20207;-68
2022/03/28 03:45:42;;;;;;;8.63;6.10;;;6.00;99.90;;;;;;5079059;28;20200;-68
2022/03/28 03:48:10;;;;;;;9.88;6.22;;;6.00;99.90;;;;;;5078066;28;20450;-68
2022/03/28 03:50:37;;;;;;;11.68;6.78;;;6.00;99.90;;;;;;5078210;28;20635;-69
2022/03/28 03:53:09;;;;;;;9.38;6.68;;;6.00;99.90;;;;;;5077986;28;20196;-68
2022/03/28 03:55:37;;;;;;;10.95;7.25;;;6.10;99.90;;;;;;5078034;28;20464;-68
2022/03/28 03:58:07;;;;;;;10.75;6.78;;;6.20;99.90;;;;;;5077307;28;20449;-68
2022/03/28 04:00:35;;;;;;;11.05;7.50;;;6.20;99.90;;;;;;5077768;28;20228;-68
2022/03/28 04:03:04;;;;;;;13.48;8.50;;;6.20;99.90;;;;;;5078076;28;20308;-69
2022/03/28 04:05:32;;;;;;;12.80;7.95;;;6.20;99.90;;;;;;5077983;28;20211;-69
2022/03/28 04:08:00;;;;;;;16.13;8.25;;;6.30;99.90;;;;;;5077401;28;20208;-70
2022/03/28 04:10:29;;;;;;;11.48;7.85;;;6.40;99.90;;;;;;5077570;28;20220;-68
2022/03/28 04:12:57;;;;;;;15.35;9.13;;;6.40;99.90;;;;;;5077598;28;20211;-68
2022/03/28 04:15:26;;;;;;;10.35;7.20;;;6.40;99.90;;;;;;5077660;28;20562;-70
2022/03/28 04:17:54;;;;;;;14.07;9.45;;;6.40;99.90;;;;;;5077734;28;20680;-70
2022/03/28 04:20:22;;;;;;;14.20;8.90;;;6.40;99.90;;;;;;5077361;28;20217;-70
2022/03/28 04:22:51;;;;;;;11.63;7.90;;;6.40;99.90;;;;;;5077356;28;20706;-70
2022/03/28 04:25:19;;;;;;;13.48;9.25;;;6.40;99.90;;;;;;5077937;28;20634;-69
2022/03/28 04:27:46;;;;;;;13.68;8.40;;;6.50;99.90;;;;;;5077095;28;20605;-70
2022/03/28 04:30:15;;;;;;;19.23;10.30;;;6.50;99.90;;;;;;5092629;28;20291;-71
2022/03/28 04:32:44;;;;;;;11.70;9.10;;;6.50;99.90;;;;;;5090501;28;20739;-71
2022/03/28 04:35:14;;;;;;;9.48;7.03;;;6.50;99.90;;;;;;5081066;28;20200;-67
2022/03/28 04:37:43;;;;;;;12.02;7.90;;;6.50;99.90;;;;;;5081251;28;20204;-67
2022/03/28 04:40:16;;;;;;;9.00;6.53;;;6.40;99.90;;;;;;5080946;28;20223;-67
2022/03/28 04:42:44;;;;;;;9.80;7.15;;;6.20;99.90;;;;;;5081072;28;20366;-67
2022/03/28 04:45:12;;;;;;;7.88;5.75;;;6.20;99.90;;;;;;5081353;28;20201;-67
2022/03/28 04:47:41;;;;;;;5.80;4.18;;;6.30;99.90;;;;;;5081153;28;20200;-66
2022/03/28 04:50:10;;;;;;;5.07;3.40;;;6.20;99.90;;;;;;5080947;28;20258;-66
2022/03/28 04:52:38;;;;;;;3.45;2.70;;;6.20;99.90;;;;;;5081082;28;20655;-67
2022/03/28 04:55:07;;;;;;;3.80;2.67;;;6.20;99.90;;;;;;5081274;28;20208;-67
2022/03/28 04:57:37;;;;;;;4.20;3.70;;;6.20;99.90;;;;;;5080884;28;20204;-67
2022/03/28 05:00:08;;;;;;;4.30;3.47;;;6.10;99.90;;;;;;5085664;28;20472;-67
2022/03/28 05:02:36;;;;;;;3.40;3.10;;;6.10;99.90;;;;;;5085754;28;20251;-68
2022/03/28 05:05:06;;;;;;;6.15;4.32;;;6.00;99.90;;;;;;5084879;28;20243;-66
2022/03/28 05:07:36;;;;;;;4.15;3.75;;;5.90;99.90;;;;;;5084751;28;20524;-68
2022/03/28 05:10:05;;;;;;;4.35;3.90;;;5.90;99.90;;;;;;5084346;28;20792;-69
2022/03/28 05:12:34;;;;;;;4.22;3.30;;;5.90;99.90;;;;;;5081433;28;20397;-69
2022/03/28 05:15:03;;;;;;;7.68;4.80;;;5.90;99.90;;;;;;5081009;28;20296;-79
2022/03/28 05:17:32;;;;;;;5.13;4.15;;;5.90;99.90;;;;;;5081199;28;20243;-77
2022/03/28 05:20:01;;;;;;;7.43;3.50;;;6.00;99.90;;;;;;5080393;28;20307;-71
2022/03/28 05:22:29;;;;;;;6.18;4.40;;;6.10;99.90;;;;;;5080889;28;20228;-71
2022/03/28 05:25:02;;;;;;;7.78;4.50;;;6.10;99.90;;;;;;5083019;28;20677;-71
2022/03/28 05:27:31;;;;;;;3.97;3.10;;;6.10;99.90;;;;;;5082083;28;20216;-71
2022/03/28 05:30:00;;;;;;;4.13;3.03;;;6.10;99.90;;;;;;5080761;28;20243;-71
2022/03/28 05:32:27;;;;;;;3.15;2.85;;;6.10;99.90;;;;;;5080837;28;20283;-71
2022/03/28 05:34:55;;;;;;;2.95;2.67;;;6.10;99.90;;;;;;5079778;28;20689;-72
2022/03/28 05:37:23;;;;;;;2.85;2.15;;;6.10;99.90;;;;;;5079897;28;20207;-70
2022/03/28 05:39:51;;;;;;;3.47;2.90;;;6.00;99.90;;;;;;5080052;28;20295;-71
2022/03/28 05:42:20;;;;;;;2.05;1.85;;;6.10;99.90;;;;;;5079179;28;20221;-70
2022/03/28 05:44:48;;;;;;;2.10;1.90;;;6.10;99.90;;;;;;5080915;28;20206;-70
2022/03/28 05:47:15;;;;;;;2.58;2.38;;;6.10;99.90;;;;;;5081559;28;20207;-70
2022/03/28 05:49:44;;;;;;;5.63;2.40;;;6.00;99.90;;;;;;5081661;28;20207;-70
2022/03/28 05:52:12;;;;;;;2.00;1.80;;;6.00;99.90;;;;;;5082531;28;20211;-73
2022/03/28 05:54:40;;;;;;;4.30;2.30;;;6.00;99.90;;;;;;5082247;28;20785;-71
2022/03/28 05:57:07;;;;;;;3.30;1.45;;;5.90;99.90;;;;;;5081251;28;20248;-71
2022/03/28 05:59:37;;;;;;;1.75;1.65;;;5.80;99.90;;;;;;5081551;28;20295;-71
2022/03/28 06:02:06;;;;;;;3.30;1.83;;;5.80;99.90;;;;;;5080738;28;20235;-72
2022/03/28 06:04:34;;;;;;;2.17;2.00;;;5.80;99.90;;;;;;5081019;28;20219;-72
2022/03/28 06:07:02;;;;;;;2.30;1.80;;;5.80;99.90;;;;;;5077318;28;20201;-72
2022/03/28 06:09:30;;;;;;;2.40;2.20;;;5.80;99.90;;;;;;5079962;28;20200;-71
2022/03/28 06:11:57;;;;;;;2.80;1.90;;;5.80;99.90;;;;;;5065534;28;20236;-72
2022/03/28 06:14:25;;;;;;;2.72;1.58;;;5.80;99.90;;;;;;5059889;28;20209;-72
2022/03/28 06:16:54;;;;;;;1.30;1.20;;;5.80;99.90;;;;;;5059851;28;20201;-67
2022/03/28 06:19:26;;;;;;;4.13;2.08;;;5.80;99.90;;;;;;5069736;28;20580;-66
2022/03/28 06:21:53;;;;;;;1.88;1.60;;;5.80;99.90;;;;;;5079904;28;20320;-68
2022/03/28 06:24:21;;;;;;;1.92;1.63;;;5.80;99.90;;;;;;5079935;28;20564;-67
2022/03/28 06:26:49;;;;;;;3.42;2.67;;;5.80;99.90;;;;;;5078563;28;20306;-67
2022/03/28 06:29:21;;;;;;;3.38;2.10;;;5.90;99.90;;;;;;5079004;28;20223;-63
2022/03/28 06:31:49;;;;;;;4.97;2.80;;;5.90;99.90;;;;;;5079382;28;20225;-65
2022/03/28 06:34:18;;;;;;;3.35;2.92;;;5.90;99.90;;;;;;5079272;28;20200;-66
2022/03/28 06:36:47;;;;;;;4.60;3.00;;;5.90;99.90;;;;;;5079058;28;20242;-66
2022/03/28 06:39:15;;;;;;;5.65;4.28;;;5.90;99.90;;;;;;5078214;28;20847;-66
2022/03/28 06:41:43;;;;;;;3.60;3.25;;;5.90;99.90;;;;;;5079063;28;20598;-67
2022/03/28 06:44:12;;;;;;;5.30;4.07;;;6.00;99.90;;;;;;5079061;28;20292;-66
2022/03/28 06:46:42;;;;;;;5.55;4.18;;;6.00;99.90;;;;;;5078787;28;20303;-65
2022/03/28 06:49:10;;;;;;;5.10;3.65;;;6.00;99.90;;;;;;5079066;28;20291;-66
2022/03/28 06:51:39;;;;;;;5.75;4.40;;;6.10;99.90;;;;;;5083684;28;20300;-66
2022/03/28 06:54:08;;;;;;;5.35;4.78;;;6.10;99.90;;;;;;5082047;28;20246;-65
2022/03/28 06:56:37;;;;;;;9.23;4.43;;;6.10;99.90;;;;;;5078343;28;20208;-66
2022/03/28 06:59:06;;;;;;;7.90;5.65;;;6.20;99.90;;;;;;5078473;28;20227;-66
2022/03/28 07:01:34;;;;;;;8.15;5.45;;;6.10;99.90;;;;;;5078199;28;20387;-65
2022/03/28 07:04:03;;;;;;;7.32;5.45;;;6.10;99.90;;;;;;5078406;28;20220;-65
2022/03/28 07:06:30;;;;;;;7.57;6.20;;;6.20;99.90;;;;;;5078419;28;20265;-66
2022/03/28 07:09:01;;;;;;;8.98;4.90;;;6.20;99.90;;;;;;5078210;28;20583;-65
2022/03/28 07:11:29;;;;;;;4.18;3.40;;;6.20;99.90;;;;;;5078913;28;20224;-66
2022/03/28 07:13:57;;;;;;;5.50;2.88;;;6.30;99.90;;;;;;5078305;28;20204;-65
2022/03/28 07:16:25;;;;;;;3.30;3.00;;;6.30;99.90;;;;;;5077854;28;20261;-66
2022/03/28 07:18:53;;;;;;;6.70;4.57;;;6.40;99.90;;;;;;5077651;28;20209;-67
2022/03/28 07:21:20;;;;;;;4.35;3.38;;;6.30;99.90;;;;;;5078302;28;20224;-67
2022/03/28 07:23:49;;;;;;;3.55;3.10;;;6.40;99.90;;;;;;5077444;28;20696;-66
2022/03/28 07:26:22;;;;;;;7.45;4.13;;;6.40;99.90;;;;;;5078800;28;20246;-66
2022/03/28 07:28:50;;;;;;;4.32;3.97;;;6.50;99.90;;;;;;5077459;28;20358;-69
2022/03/28 07:31:18;;;;;;;4.88;3.50;;;6.60;99.90;;;;;;5077674;28;20891;-68
2022/03/28 07:33:46;;;;;;;4.00;3.67;;;6.70;99.90;;;;;;5078360;28;20204;-69
2022/03/28 07:36:15;;;;;;;6.05;4.35;;;6.70;99.90;;;;;;5079061;28;20759;-69
2022/03/28 07:38:43;;;;;;;5.10;3.53;;;6.70;99.90;;;;;;5077725;28;20192;-67
2022/03/28 07:41:11;;;;;;;5.68;3.78;;;6.80;99.90;;;;;;5078013;28;20224;-69
2022/03/28 07:43:40;;;;;;;7.25;4.57;;;6.90;99.90;;;;;;5077765;28;20620;-67
2022/03/28 07:46:12;;;;;;;8.02;4.22;;;7.00;99.90;;;;;;5077592;28;20215;-69
2022/03/28 07:48:40;;;;;;;6.60;4.30;;;6.90;99.90;;;;;;5076557;28;20263;-66
2022/03/28 07:51:08;;;;;;;7.07;5.25;;;6.90;99.90;;;;;;5076603;28;20587;-66
2022/03/28 07:53:38;;;;;;;6.68;4.72;;;6.90;99.90;;;;;;5076940;28;20205;-66
2022/03/28 07:56:06;;;;;;;6.35;4.82;;;6.90;99.90;;;;;;5076507;28;20663;-66
2022/03/28 07:58:34;;;;;;;6.53;4.50;;;6.90;99.90;;;;;;5075076;28;20291;-66
2022/03/28 08:01:03;;;;;;;5.15;4.30;;;7.00;99.90;;;;;;5077356;28;20487;-67
2022/03/28 08:03:31;;;;;;;7.68;4.47;;;7.00;99.90;;;;;;5077210;28;20711;-66
2022/03/28 08:05:59;;;;;;;7.70;5.25;;;7.00;99.90;;;;;;5081283;28;20291;-67
2022/03/28 08:08:35;;;;;;;5.47;4.85;;;7.00;99.90;;;;;;5081741;28;20238;-66
2022/03/28 08:11:03;;;;;;;9.85;5.70;;;7.00;99.90;;;;;;5082263;28;20236;-66
2022/03/28 08:13:31;;;;;;;3.92;3.35;;;7.10;99.90;;;;;;5082252;28;20196;-66
2022/03/28 08:15:59;;;;;;;3.38;3.00;;;7.10;99.90;;;;;;5081742;28;20218;-67
2022/03/28 08:18:29;;;;;;;3.40;3.10;;;7.10;99.90;;;;;;5081076;28;20295;-68
2022/03/28 08:20:57;;;;;;;3.10;2.83;;;7.10;99.90;;;;;;5081370;28;20413;-68
2022/03/28 08:23:25;;;;;;;3.88;3.58;;;7.10;99.90;;;;;;5082708;28;20220;-70
2022/03/28 08:25:53;;;;;;;4.80;4.25;;;7.20;99.90;;;;;;5082027;28;20247;-68
2022/03/28 08:28:21;;;;;;;7.72;6.35;;;7.20;99.90;;;;;;5080981;28;20256;-68
2022/03/28 08:30:49;;;;;;;9.90;6.55;;;7.10;99.90;;;;;;5082406;28;20238;-68
2022/03/28 08:33:17;;;;;;;8.40;6.22;;;7.20;99.90;;;;;;5083579;28;20232;-68
2022/03/28 08:35:46;;;;;;;6.60;5.95;;;7.20;99.90;;;;;;5082477;28;20207;-66
2022/03/28 08:38:15;;;;;;;9.80;6.65;;;7.30;99.90;;;;;;5079545;28;20208;-67
2022/03/28 08:40:44;;;;;;;12.73;6.25;;;7.40;99.90;;;;;;5080092;28;20753;-68
2022/03/28 08:43:12;;;;;;;6.28;4.75;;;7.50;99.90;;;;;;5078163;28;20220;-68
2022/03/28 08:45:41;;;;;;;4.60;4.15;;;7.60;99.90;;;;;;5077743;28;20206;-69
2022/03/28 08:48:12;;;;;;;4.40;3.95;;;7.70;99.90;;;;;;5077148;28;20208;-68
2022/03/28 08:50:43;;;;;;;4.60;4.20;;;7.70;99.90;;;;;;5077433;28;20220;-69
2022/03/28 08:53:13;;;;;;;5.47;4.32;;;7.70;99.90;;;;;;5078198;28;20487;-75
2022/03/28 08:55:42;;;;;;;5.10;4.35;;;7.60;99.90;;;;;;5078189;28;20397;-69
2022/03/28 08:58:10;;;;;;;5.82;4.85;;;7.60;99.90;;;;;;5079667;28;20634;-68
2022/03/28 09:00:38;;;;;;;4.63;4.20;;;7.60;99.90;;;;;;5082106;28;20227;-69
2022/03/28 09:03:06;;;;;;;5.28;4.78;;;7.60;99.90;;;;;;5081531;28;20303;-69
2022/03/28 09:05:36;;;;;;;5.10;4.55;;;7.70;99.90;;;;;;5082642;28;20218;-68
2022/03/28 09:08:06;;;;;;;4.70;3.42;;;7.80;99.90;;;;;;5081854;28;20200;-69
2022/03/28 09:10:45;;;;;;;5.88;3.90;;;7.90;99.90;;;;;;5081737;28;20465;-68
2022/03/28 09:13:16;;;;;;;4.95;4.35;;;7.90;99.90;;;;;;5081108;28;20792;-69
2022/03/28 09:15:46;;;;;;;6.25;4.22;;;7.90;99.90;;;;;;5080763;28;20207;-68
2022/03/28 09:18:22;;;;;;;4.72;4.10;;;8.10;99.90;;;;;;5079743;28;20197;-68
2022/03/28 09:20:51;;;;;;;5.15;4.60;;;8.20;99.90;;;;;;5066141;28;20228;-69
2022/03/28 09:23:42;;;;;;;5.78;5.10;;;8.40;99.90;;;;;;5080422;28;20278;-68
2022/03/28 09:26:16;;;;;;;6.75;4.68;;;8.50;99.90;;;;;;5079738;28;20205;-68
2022/03/28 09:28:48;;;;;;;7.22;5.88;;;8.50;99.90;;;;;;5080755;28;20188;-68
2022/03/28 09:31:18;;;;;;;7.00;5.18;;;8.50;99.90;;;;;;5080341;28;20228;-68
2022/03/28 09:34:01;;;;;;;6.72;6.03;;;8.50;99.90;;;;;;5080518;28;20203;-68
2022/03/28 09:36:37;;;;;;;5.53;4.93;;;8.50;99.90;;;;;;5081938;28;20279;-68
2022/03/28 09:39:09;;;;;;;9.38;5.20;;;8.60;99.90;;;;;;5084237;28;20899;-67
2022/03/28 09:41:39;;;;;;;7.60;5.18;;;8.60;99.90;;;;;;5085230;28;20227;-68
2022/03/28 09:44:08;;;;;;;7.93;6.00;;;8.60;99.90;;;;;;5083300;28;20220;-69
2022/03/28 09:46:37;;;;;;;10.32;6.22;;;8.60;99.90;;;;;;5080892;28;20664;-69
2022/03/28 09:49:05;;;;;;;6.97;5.45;;;8.70;99.90;;;;;;5080838;28;20441;-68
2022/03/28 09:51:36;;;;;;;6.55;5.07;;;8.80;99.90;;;;;;5079819;28;20388;-68
2022/03/28 09:54:04;;;;;;;7.45;5.70;;;8.80;99.90;;;;;;5079532;28;20507;-68
2022/03/28 09:56:32;;;;;;;11.27;6.30;;;8.80;99.90;;;;;;5079477;28;20241;-68
2022/03/28 09:59:04;;;;;;;11.32;6.97;;;8.90;99.90;;;;;;5079370;28;20820;-69
2022/03/28 10:01:35;;;;;;;8.50;5.90;;;8.90;99.90;;;;;;5079642;28;20255;-68
2022/03/28 10:04:07;;;;;;;9.20;7.32;;;9.10;99.90;;;;;;5079091;28;20530;-68
2022/03/28 10:06:37;;;;;;;12.32;6.65;;;9.20;99.90;;;;;;5079741;28;20645;-68
2022/03/28 10:09:11;;;;;;;7.10;5.55;;;9.20;99.90;;;;;;5079088;28;20211;-69
2022/03/28 10:11:40;;;;;;;9.05;6.15;;;9.30;99.90;;;;;;5079728;28;20220;-69
2022/03/28 10:14:09;;;;;;;5.90;5.40;;;9.40;99.90;;;;;;5082278;28;20373;-67
2022/03/28 10:16:39;;;;;;;7.03;3.97;;;9.70;99.90;;;;;;5084738;28;20630;-68
2022/03/28 10:19:07;;;;;;;5.13;4.35;;;9.90;99.90;;;;;;5084686;28;20291;-67
2022/03/28 10:21:38;;;;;;;4.82;4.20;;;10.10;99.90;;;;;;5084308;28;20233;-68
2022/03/28 10:24:11;;;;;;;7.90;4.68;;;10.20;99.90;;;;;;5084411;28;20463;-67
2022/03/28 10:26:45;;;;;;;5.25;4.15;;;10.20;99.90;;;;;;5081971;28;20250;-67
2022/03/28 10:29:17;;;;;;;5.07;4.57;;;10.30;99.90;;;;;;5079721;28;20463;-68
2022/03/28 10:32:03;;;;;;;8.32;5.25;;;10.40;99.90;;;;;;5078961;28;20228;-68
2022/03/28 10:34:43;;;;;;;10.35;6.03;;;10.50;99.90;;;;;;5078748;28;20283;-68
2022/03/28 10:37:34;;;;;;;7.63;5.68;;;10.50;99.90;;;;;;5078599;28;20299;-68
2022/03/28 10:40:27;;;;;;;8.48;5.95;;;10.70;99.90;;;;;;5079018;28;20247;-69
2022/03/28 10:43:03;;;;;;;6.10;5.50;;;10.70;99.90;;;;;;5078413;28;20334;-68
2022/03/28 10:45:39;;;;;;;7.05;5.85;;;10.70;99.90;;;;;;5078855;28;20625;-68
2022/03/28 10:48:09;;;;;;;6.68;5.55;;;10.80;99.90;;;;;;5078544;28;20516;-68
2022/03/28 10:50:38;;;;;;;6.50;5.28;;;10.90;99.90;;;;;;5078844;28;20228;-68
2022/03/28 10:53:10;;;;;;;5.43;4.93;;;11.10;99.90;;;;;;5080055;28;20648;-68
2022/03/28 10:55:42;;;;;;;5.40;4.87;;;11.10;99.90;;;;;;5078544;28;20236;-69
2022/03/28 10:58:19;;;;;;;5.87;5.03;;;11.10;99.90;;;;;;5078211;28;20441;-68
2022/03/28 11:01:22;;;;;;;6.53;5.43;;;11.10;99.90;;;;;;5079301;28;20454;-68
2022/03/28 11:04:00;;;;;;;6.00;5.10;;;11.10;99.90;;;;;;5081103;28;20414;-68
2022/03/28 11:06:59;;;;;;;6.70;6.10;;;11.20;99.90;;;;;;5079586;28;20493;-68
2022/03/28 11:09:44;;;;;;;6.55;5.88;;;11.20;99.90;;;;;;5070776;28;20450;-69
2022/03/28 11:12:14;;;;;;;6.85;6.25;;;11.30;99.90;;;;;;5079323;28;20215;-67
2022/03/28 11:14:58;;;;;;;6.63;5.93;;;11.40;99.90;;;;;;5080146;28;20196;-69
2022/03/28 11:17:29;;;;;;;8.43;7.63;;;11.50;99.90;;;;;;5079478;28;21072;-68
2022/03/28 11:20:01;;;;;;;7.93;7.13;;;11.60;99.90;;;;;;5078894;28;20474;-69
2022/03/28 11:22:47;;;;;;;8.43;7.20;;;11.60;99.90;;;;;;5079112;28;20441;-68
2022/03/28 11:25:33;;;;;;;9.67;8.87;;;11.60;99.90;;;;;;5078971;28;20482;-68
2022/03/28 11:28:16;;;;;;;10.67;9.67;;;11.70;99.90;;;;;;5078366;28;20442;-68
2022/03/28 11:30:50;;;;;;;9.80;8.90;;;11.70;99.90;;;;;;5079208;28;20944;-68
2022/03/28 11:33:21;;;;;;;8.60;7.60;;;11.70;99.90;;;;;;5079226;28;20465;-68
2022/03/28 11:35:55;;;;;;;8.20;7.40;;;11.80;99.90;;;;;;5078991;28;20749;-68
2022/03/28 11:38:25;;;;;;;8.37;7.60;;;11.70;99.90;;;;;;5078594;28;20439;-68
2022/03/28 11:40:54;;;;;;;9.43;5.80;;;11.50;99.90;;;;;;5077511;28;21058;-68
2022/03/28 11:43:30;;;;;;;6.83;5.83;;;11.50;99.90;;;;;;5078236;28;20472;-68
2022/03/28 11:45:59;;;;;;;6.03;5.43;;;11.60;99.90;;;;;;5077825;28;20972;-68
2022/03/28 11:48:29;;;;;;;8.38;5.03;;;11.70;99.90;;;;;;5078311;28;20446;-68
2022/03/28 11:50:57;;;;;;;6.57;5.97;;;11.80;99.90;;;;;;5077875;28;20230;-68
2022/03/28 11:53:25;;;;;;;5.10;4.70;;;11.90;99.90;;;;;;5076686;28;20472;-68
2022/03/28 11:55:57;;;;;;;4.63;4.23;;;12.00;99.90;;;;;;5078554;28;20927;-68
2022/03/28 11:58:31;;;;;;;9.83;6.27;;;12.00;99.90;;;;;;5078322;28;21012;-68
2022/03/28 12:01:09;;;;;;;5.90;5.30;;;12.00;99.90;;;;;;5079156;28;20996;-68
2022/03/28 12:03:48;;;;;;;6.23;5.40;;;12.00;99.90;;;;;;5078323;28;20449;-68
2022/03/28 12:06:27;;;;;;;5.47;4.93;;;12.10;99.90;;;;;;5077622;28;20473;-70
2022/03/28 12:08:55;;;;;;;6.43;5.33;;;12.20;99.90;;;;;;5078352;28;20966;-67
2022/03/28 12:11:24;;;;;;;8.13;5.10;;;12.20;99.90;;;;;;5078204;28;20462;-67
2022/03/28 12:13:54;;;;;;;5.40;4.97;;;12.30;99.90;;;;;;5078310;28;20446;-67
2022/03/28 12:16:23;;;;;;;5.77;5.23;;;12.50;99.90;;;;;;5078417;28;20648;-66
2022/03/28 12:18:58;;;;;;;10.83;5.10;;;12.50;99.90;;;;;;5077390;28;20643;-67
2022/03/28 12:21:27;;;;;;;6.03;5.47;;;12.30;99.90;;;;;;5077914;28;20536;-64
2022/03/28 12:23:55;;;;;;;7.37;5.83;;;12.20;99.90;;;;;;5077753;28;20442;-65
2022/03/28 12:26:23;;;;;;;6.57;5.97;;;12.10;99.90;;;;;;5078956;28;20527;-66
2022/03/28 12:28:53;;;;;;;6.97;4.90;;;12.10;99.90;;;;;;5078673;28;20529;-66
2022/03/28 12:31:23;;;;;;;7.63;5.00;;;12.10;99.90;;;;;;5077881;28;20500;-66
2022/03/28 12:33:53;;;;;;;6.17;5.60;;;12.20;99.90;;;;;;5077492;28;20538;-71
2022/03/28 12:36:28;;;;;;;5.93;5.30;;;12.30;99.90;;;;;;5077586;28;20439;-66
2022/03/28 12:38:58;;;;;;;6.57;5.43;;;12.40;99.90;;;;;;5077044;28;20434;-66
2022/03/28 12:41:27;;;;;;;7.53;6.23;;;12.40;99.90;;;;;;5077582;28;20519;-66
2022/03/28 12:43:56;;;;;;;6.13;5.40;;;12.40;99.90;;;;;;5076802;28;20550;-67
2022/03/28 12:46:25;;;;;;;6.67;6.07;;;12.40;99.90;;;;;;5077283;28;20711;-70
2022/03/28 12:48:57;;;;;;;10.23;7.10;;;12.30;99.90;;;;;;5077760;28;20454;-72
2022/03/28 12:51:27;;;;;;;7.77;6.70;;;12.20;99.90;;;;;;5079846;28;20458;-72
2022/03/28 12:54:02;;;;;;;8.10;6.90;;;12.00;99.90;;;;;;5081217;28;20843;-72
2022/03/28 12:56:41;;;;;;;7.83;6.43;;;11.90;99.90;;;;;;5080744;28;20552;-72
2022/03/28 12:59:09;;;;;;;8.57;7.63;;;11.90;99.90;;;;;;5081833;28;20549;-73
2022/03/28 13:01:40;;;;;;;8.20;6.80;;;11.90;99.90;;;;;;5081641;28;20535;-73
2022/03/28 13:04:13;;;;;;;8.00;6.40;;;11.80;99.90;;;;;;5081976;28;20458;-73